createdAt,value
2023-01-17T00:00:07.782Z,17
2023-01-17T00:05:08.020Z,17
2023-01-17T00:10:09.029Z,17
2023-01-17T00:15:09.146Z,17
2023-01-17T00:20:09.493Z,16.9
2023-01-17T00:25:09.636Z,17
2023-01-17T00:30:12.731Z,17
2023-01-17T00:35:12.576Z,17
2023-01-17T00:40:12.780Z,17
2023-01-17T00:45:13.060Z,17
2023-01-17T00:50:13.419Z,16.9
2023-01-17T00:55:13.613Z,17
2023-01-17T01:00:14.068Z,17
2023-01-17T01:05:17.066Z,17
2023-01-17T01:10:19.612Z,16.9
2023-01-17T01:15:19.395Z,16.9
2023-01-17T01:20:19.865Z,17
2023-01-17T01:25:22.949Z,16.9
2023-01-17T01:30:22.821Z,16.9
2023-01-17T01:35:23.040Z,16.9
2023-01-17T01:40:26.134Z,16.9
2023-01-17T01:45:26.251Z,17
2023-01-17T01:50:29.187Z,16.8
2023-01-17T01:55:28.788Z,17
2023-01-17T02:00:28.954Z,17
2023-01-17T02:05:29.003Z,16.9
2023-01-17T02:10:29.326Z,17
2023-01-17T02:15:29.548Z,16.9
2023-01-17T02:20:30.040Z,17
2023-01-17T02:25:30.187Z,16.9
2023-01-17T02:30:30.541Z,16.9
2023-01-17T02:35:30.767Z,16.9
2023-01-17T02:40:31.111Z,16.9
2023-01-17T02:45:34.101Z,17
2023-01-17T02:50:33.958Z,17
2023-01-17T02:55:34.001Z,17
2023-01-17T03:00:34.403Z,16.9
2023-01-17T03:05:34.695Z,16.9
2023-01-17T03:10:37.713Z,16.9
2023-01-17T03:15:37.593Z,16.9
2023-01-17T03:20:37.792Z,16.9
2023-01-17T03:25:38.124Z,16.9
2023-01-17T03:30:38.494Z,16.9
2023-01-17T03:35:38.697Z,16.9
2023-01-17T03:40:41.635Z,16.9
2023-01-17T03:45:41.357Z,16.9
2023-01-17T03:50:44.235Z,16.8
2023-01-17T03:55:46.670Z,16.8
2023-01-17T04:00:49.011Z,16.9
2023-01-17T04:05:48.652Z,16.9
2023-01-17T04:10:49.013Z,16.8
2023-01-17T04:15:49.324Z,16.9
2023-01-17T04:20:49.772Z,16.8
2023-01-17T04:25:52.894Z,16.9
2023-01-17T04:30:52.705Z,16.8
2023-01-17T04:35:52.957Z,16.8
2023-01-17T04:40:53.380Z,16.8
2023-01-17T04:45:53.623Z,16.8
2023-01-17T04:50:53.765Z,16.8
2023-01-17T04:55:56.829Z,16.8
2023-01-17T05:00:56.600Z,16.8
2023-01-17T05:05:56.804Z,16.8
2023-01-17T05:10:57.377Z,16.8
2023-01-17T05:15:57.862Z,16.8
2023-01-17T05:21:00.774Z,16.8
2023-01-17T05:26:00.501Z,16.7
2023-01-17T05:31:00.889Z,16.7
2023-01-17T05:36:01.099Z,16.5
2023-01-17T05:41:01.182Z,16.8
2023-01-17T05:46:01.563Z,16.7
2023-01-17T05:51:01.828Z,16.7
2023-01-17T05:56:02.131Z,16.7
2023-01-17T06:01:02.658Z,16.7
2023-01-17T06:06:02.736Z,16.7
2023-01-17T06:11:05.862Z,16.7
2023-01-17T06:16:05.580Z,16.8
2023-01-17T06:21:05.975Z,16.8
2023-01-17T06:26:06.375Z,16.8
2023-01-17T06:31:06.721Z,16.8
2023-01-17T06:36:06.907Z,16.9
2023-01-17T06:41:08.321Z,16.9
2023-01-17T06:46:08.501Z,16.9
2023-01-17T06:51:08.853Z,16.9
2023-01-17T06:56:11.922Z,16.9
2023-01-17T07:01:11.762Z,16.8
2023-01-17T07:06:10.799Z,16.8
2023-01-17T07:11:12.359Z,16.9
2023-01-17T07:16:15.220Z,16.9
2023-01-17T07:21:15.133Z,16.9
2023-01-17T07:26:15.216Z,16.9
2023-01-17T07:31:15.672Z,16.9
2023-01-17T07:36:15.963Z,16.9
2023-01-17T07:41:16.013Z,16.9
2023-01-17T07:46:16.335Z,16.9
2023-01-17T07:51:16.646Z,16.8
2023-01-17T07:56:19.645Z,16.9
2023-01-17T08:01:19.632Z,16.9
2023-01-17T08:06:19.873Z,17
2023-01-17T08:11:20.202Z,16.9
2023-01-17T08:16:20.591Z,17
2023-01-17T08:21:20.802Z,17
2023-01-17T08:26:23.953Z,17
2023-01-17T08:31:26.513Z,16.9
2023-01-17T08:36:27.283Z,17
2023-01-17T08:41:27.284Z,17
2023-01-17T08:46:27.494Z,17
2023-01-17T08:51:30.474Z,17
2023-01-17T08:56:32.128Z,17
2023-01-17T09:01:32.292Z,16.9
2023-01-17T09:06:32.748Z,17
2023-01-17T09:11:32.892Z,17
2023-01-17T09:16:33.251Z,17.1
2023-01-17T09:21:33.492Z,17.1
2023-01-17T09:26:34.461Z,17.1
2023-01-17T09:31:34.428Z,17
2023-01-17T09:36:34.711Z,17.1
2023-01-17T09:41:34.988Z,17.1
2023-01-17T09:46:35.436Z,17.1
2023-01-17T09:51:35.882Z,17.1
2023-01-17T09:56:36.323Z,17.2
2023-01-17T10:01:36.747Z,17.2
2023-01-17T10:06:36.617Z,17.2
2023-01-17T10:11:36.721Z,17.2
2023-01-17T10:16:37.068Z,17.2
2023-01-17T10:21:37.248Z,17.2
2023-01-17T10:26:37.246Z,17.2
2023-01-17T10:31:37.533Z,17.2
2023-01-17T10:36:37.897Z,17.2
2023-01-17T10:41:38.230Z,17.2
2023-01-17T10:46:41.280Z,17.3
2023-01-17T10:51:40.961Z,17.3
2023-01-17T10:56:40.964Z,17.3
2023-01-17T11:01:41.223Z,17.4
2023-01-17T11:06:57.166Z,17.6
2023-01-17T11:11:44.816Z,17.7
2023-01-17T11:16:44.798Z,17.8
2023-01-17T11:21:45.819Z,17.9
2023-01-17T11:26:47.806Z,17.9
2023-01-17T11:31:47.840Z,18
2023-01-17T11:36:47.777Z,18.1
2023-01-17T11:41:47.893Z,18.1
2023-01-17T11:46:48.217Z,18.1
2023-01-17T11:51:48.464Z,18.1
2023-01-17T11:56:48.842Z,18.2
2023-01-17T12:01:49.193Z,18.2
2023-01-17T12:06:57.499Z,18.3
2023-01-17T12:11:49.848Z,18.3
2023-01-17T12:16:49.934Z,18.4
2023-01-17T12:21:52.821Z,18.3
2023-01-17T12:26:52.788Z,18.4
2023-01-17T12:31:51.959Z,18.3
2023-01-17T12:36:52.524Z,18.4
2023-01-17T12:41:52.775Z,18.4
2023-01-17T12:46:55.821Z,18.4
2023-01-17T12:51:55.636Z,18.4
2023-01-17T12:56:55.451Z,18.4
2023-01-17T13:01:56.058Z,18.3
2023-01-17T13:06:56.444Z,18.4
2023-01-17T13:11:56.655Z,18.4
2023-01-17T13:16:56.661Z,18.4
2023-01-17T13:21:56.946Z,18.5
2023-01-17T13:26:57.277Z,18.5
2023-01-17T13:32:00.111Z,18.5
2023-01-17T13:36:58.702Z,18.5
2023-01-17T13:41:59.544Z,18.5
2023-01-17T13:47:02.070Z,18.5
2023-01-17T13:52:01.799Z,18.5
2023-01-17T13:57:01.902Z,18.5
2023-01-17T14:02:02.108Z,18.6
2023-01-17T14:07:02.368Z,18.5
2023-01-17T14:12:02.557Z,18.5
2023-01-17T14:17:02.813Z,18.5
2023-01-17T14:22:05.827Z,18.5
2023-01-17T14:27:05.627Z,18.5
2023-01-17T14:32:05.833Z,18.5
2023-01-17T14:37:05.997Z,18.5
2023-01-17T14:42:07.034Z,18.5
2023-01-17T14:47:09.922Z,18.6
2023-01-17T14:52:09.544Z,18.6
2023-01-17T14:57:09.576Z,18.6
2023-01-17T15:02:10.188Z,18.6
2023-01-17T15:07:10.211Z,18.6
2023-01-17T15:12:10.660Z,18.6
2023-01-17T15:17:10.680Z,18.6
2023-01-17T15:22:11.058Z,18.6
2023-01-17T15:27:12.981Z,18.6
2023-01-17T15:32:13.073Z,18.5
2023-01-17T15:37:13.250Z,18.7
2023-01-17T15:42:13.518Z,18.6
2023-01-17T15:47:13.624Z,18.6
2023-01-17T15:52:13.961Z,18.6
2023-01-17T15:57:14.154Z,18.6
2023-01-17T16:02:14.477Z,18.7
2023-01-17T16:07:14.870Z,18.6
2023-01-17T16:12:15.320Z,18.7
2023-01-17T16:17:15.318Z,18.7
2023-01-17T16:22:15.402Z,18.6
2023-01-17T16:27:15.781Z,18.7
2023-01-17T16:32:18.877Z,18.6
2023-01-17T16:37:22.020Z,18.7
2023-01-17T16:42:23.496Z,18.7
2023-01-17T16:47:23.258Z,18.7
2023-01-17T16:52:26.193Z,18.6
2023-01-17T16:57:25.994Z,18.7
2023-01-17T17:02:26.183Z,18.8
2023-01-17T17:07:26.498Z,18.7
2023-01-17T17:12:29.524Z,18.7
2023-01-17T17:17:29.369Z,18.7
2023-01-17T17:22:29.482Z,18.7
2023-01-17T17:27:29.813Z,18.8
2023-01-17T17:32:29.905Z,18.8
2023-01-17T17:37:29.992Z,18.8
2023-01-17T17:42:30.281Z,18.8
2023-01-17T17:47:30.367Z,18.8
2023-01-17T17:52:30.697Z,18.8
2023-01-17T17:57:30.889Z,18.8
2023-01-17T18:02:33.827Z,18.7
2023-01-17T18:07:33.354Z,18.8
2023-01-17T18:12:33.669Z,18.8
2023-01-17T18:17:33.842Z,18.6
2023-01-17T18:22:34.071Z,18.5
2023-01-17T18:27:34.508Z,18.5
2023-01-17T18:32:34.730Z,18.5
2023-01-17T18:37:37.544Z,18.5
2023-01-17T18:42:37.262Z,18.4
2023-01-17T18:47:38.747Z,18.3
2023-01-17T18:52:38.861Z,18.4
2023-01-17T18:57:39.094Z,18.3
2023-01-17T19:02:39.290Z,18.3
2023-01-17T19:07:39.537Z,18.3
2023-01-17T19:12:39.698Z,18.2
2023-01-17T19:17:39.875Z,18.1
2023-01-17T19:22:40.000Z,18.1
2023-01-17T19:27:40.201Z,18.1
2023-01-17T19:32:40.584Z,18.1
2023-01-17T19:37:40.845Z,18.1
2023-01-17T19:42:41.238Z,18.1
2023-01-17T19:47:41.400Z,18.1
2023-01-17T19:52:45.875Z,18
2023-01-17T19:57:45.189Z,18
2023-01-17T20:02:45.413Z,18.1
2023-01-17T20:07:48.303Z,18
2023-01-17T20:12:48.121Z,18
2023-01-17T20:17:51.061Z,18
2023-01-17T20:22:50.630Z,18
2023-01-17T20:27:50.950Z,18
2023-01-17T20:32:51.234Z,18
2023-01-17T20:37:51.359Z,18
2023-01-17T20:42:51.619Z,17.9
2023-01-17T20:47:51.846Z,17.9
2023-01-17T20:52:52.827Z,18
2023-01-17T20:57:53.222Z,17.8
2023-01-17T21:02:53.620Z,17.9
2023-01-17T21:07:53.759Z,17.9
2023-01-17T21:12:53.969Z,17.9
2023-01-17T21:17:54.273Z,17.9
2023-01-17T21:22:54.468Z,17.9
2023-01-17T21:27:54.977Z,17.9
2023-01-17T21:32:55.112Z,17.9
2023-01-17T21:37:55.841Z,17.8
2023-01-17T21:42:55.842Z,17.9
2023-01-17T21:47:56.568Z,17.9
2023-01-17T21:52:56.627Z,17.9
2023-01-17T21:57:57.380Z,17.8
2023-01-17T22:02:58.909Z,17.9
2023-01-17T22:08:00.153Z,17.9
2023-01-17T22:12:59.806Z,17.9
2023-01-17T22:18:00.467Z,17.8
2023-01-17T22:23:03.165Z,17.9
2023-01-17T22:28:02.831Z,17.8
2023-01-17T22:33:03.127Z,17.9
2023-01-17T22:38:03.195Z,17.9
2023-01-17T22:43:03.177Z,17.9
2023-01-17T22:48:03.244Z,17.9
2023-01-17T22:53:03.808Z,17.8
2023-01-17T22:58:03.969Z,17.9
2023-01-17T23:03:04.333Z,17.9
2023-01-17T23:08:04.755Z,17.8
2023-01-17T23:13:05.038Z,17.8
2023-01-17T23:18:05.205Z,17.8
2023-01-17T23:23:05.541Z,17.9
2023-01-17T23:28:05.840Z,17.9
2023-01-17T23:33:06.206Z,17.9
2023-01-17T23:38:06.331Z,17.9
2023-01-17T23:43:06.549Z,17.8
2023-01-17T23:48:06.632Z,17.8
2023-01-17T23:53:07.123Z,17.9
2023-01-17T23:58:07.876Z,17.9
